createdAt,value
2023-03-06T06:03:09.740Z,500.00
2023-03-06T06:04:10.210Z,500.00
2023-03-06T06:05:12.792Z,500.00
2023-03-06T06:06:10.232Z,500.00
2023-03-06T06:07:10.220Z,500.00
2023-03-06T06:08:10.217Z,500.00
2023-03-06T06:09:11.745Z,400.00
2023-03-06T06:10:10.203Z,400.00
2023-03-06T06:11:10.202Z,400.00
2023-03-06T06:12:10.190Z,400.00
2023-03-06T06:13:09.168Z,400.00
2023-03-06T06:14:10.179Z,400.00
2023-03-06T06:15:10.168Z,400.00
2023-03-06T06:16:10.202Z,400.00
2023-03-06T06:17:10.144Z,400.00
2023-03-06T06:18:10.140Z,400.00
2023-03-06T06:19:10.155Z,400.00
2023-03-06T06:20:10.128Z,400.00
2023-03-06T06:21:10.125Z,400.00
2023-03-06T06:22:09.121Z,400.00
2023-03-06T06:23:09.096Z,400.00
2023-03-06T06:24:10.095Z,400.00
2023-03-06T06:25:10.083Z,400.00
2023-03-06T06:26:10.101Z,400.00
2023-03-06T06:27:10.071Z,400.00
2023-03-06T06:28:10.068Z,400.00
2023-03-06T06:29:10.050Z,400.00
2023-03-06T06:30:10.053Z,400.00
2023-03-06T06:31:10.084Z,400.00
2023-03-06T06:32:10.071Z,400.00
2023-03-06T06:33:10.019Z,400.00
2023-03-06T06:34:10.044Z,400.00
2023-03-06T06:35:10.106Z,400.00
2023-03-06T06:36:10.111Z,400.00
2023-03-06T06:37:10.177Z,400.00
2023-03-06T06:38:10.219Z,400.00
2023-03-06T06:39:10.210Z,400.00
2023-03-06T06:40:10.243Z,432.00
2023-03-06T06:41:42.239Z,479.00
2023-03-06T06:42:29.295Z,479.00
2023-03-06T06:43:10.275Z,479.00
2023-03-06T06:44:10.255Z,475.00
2023-03-06T06:45:10.273Z,463.00
2023-03-06T06:46:44.653Z,455.00
2023-03-06T06:47:26.241Z,467.00
2023-03-06T06:48:10.295Z,474.00
2023-03-06T06:49:10.271Z,446.00
2023-03-06T06:50:10.224Z,443.00
2023-03-06T06:51:10.372Z,431.00
2023-03-06T06:52:10.195Z,427.00
2023-03-06T06:53:10.229Z,476.00
2023-03-06T06:54:10.179Z,500.00
2023-03-06T06:55:10.183Z,501.00
2023-03-06T06:56:10.181Z,501.00
2023-03-06T06:57:10.179Z,504.00
2023-03-06T06:58:10.165Z,505.00
2023-03-06T06:59:16.478Z,508.00
2023-03-06T07:00:10.158Z,508.00
2023-03-06T07:01:09.159Z,507.00
2023-03-06T07:02:10.205Z,505.00
2023-03-06T07:03:10.144Z,493.00
2023-03-06T07:04:10.177Z,492.00
2023-03-06T07:05:10.122Z,500.00
2023-03-06T07:06:10.109Z,506.00
2023-03-06T07:07:10.129Z,509.00
2023-03-06T07:08:10.084Z,510.00
2023-03-06T07:09:10.131Z,504.00
2023-03-06T07:10:10.072Z,508.00
2023-03-06T07:11:10.073Z,503.00
2023-03-06T07:12:10.065Z,508.00
2023-03-06T07:13:10.045Z,506.00
2023-03-06T07:14:10.053Z,513.00
2023-03-06T07:15:09.028Z,512.00
2023-03-06T07:16:10.074Z,510.00
2023-03-06T07:17:09.017Z,504.00
2023-03-06T07:18:10.011Z,504.00
2023-03-06T07:19:10.003Z,516.00
2023-03-06T07:20:09.985Z,539.00
2023-03-06T07:21:09.980Z,534.00
2023-03-06T07:22:09.973Z,524.00
2023-03-06T07:23:09.999Z,531.00
2023-03-06T07:24:09.974Z,532.00
2023-03-06T07:25:09.950Z,545.00
2023-03-06T07:26:09.952Z,555.00
2023-03-06T07:27:09.954Z,562.00
2023-03-06T07:28:10.239Z,577.00
2023-03-06T07:29:09.919Z,597.00
2023-03-06T07:30:09.930Z,590.00
2023-03-06T07:31:09.988Z,588.00
2023-03-06T07:32:09.918Z,586.00
2023-03-06T07:33:09.912Z,584.00
2023-03-06T07:34:09.893Z,578.00
2023-03-06T07:35:19.881Z,585.00
2023-03-06T07:36:11.343Z,585.00
2023-03-06T07:37:09.868Z,585.00
2023-03-06T07:38:09.861Z,586.00
2023-03-06T07:39:09.872Z,587.00
2023-03-06T07:40:09.844Z,599.00
2023-03-06T07:41:09.839Z,597.00
2023-03-06T07:42:09.826Z,596.00
2023-03-06T07:43:19.005Z,596.00
2023-03-06T07:44:09.825Z,596.00
2023-03-06T07:45:09.820Z,597.00
2023-03-06T07:46:09.826Z,598.00
2023-03-06T07:47:09.788Z,599.00
2023-03-06T07:48:09.806Z,605.00
2023-03-06T07:49:09.779Z,593.00
2023-03-06T07:50:09.784Z,595.00
2023-03-06T07:51:09.780Z,601.00
2023-03-06T07:52:09.776Z,599.00
2023-03-06T07:53:11.421Z,599.00
2023-03-06T07:54:09.751Z,599.00
2023-03-06T07:55:09.761Z,600.00
2023-03-06T07:56:09.741Z,599.00
2023-03-06T07:57:08.727Z,607.00
2023-03-06T07:59:09.725Z,642.00
2023-03-06T08:00:09.703Z,631.00
2023-03-06T08:01:09.703Z,627.00
2023-03-06T08:02:09.698Z,620.00
2023-03-06T08:04:09.754Z,618.00
2023-03-06T08:05:09.731Z,619.00
2023-03-06T08:06:09.660Z,644.00
2023-03-06T08:07:09.638Z,647.00
2023-03-06T08:08:08.660Z,634.00
2023-03-06T08:09:09.627Z,633.00
2023-03-06T08:10:08.618Z,644.00
2023-03-06T08:11:09.646Z,639.00
2023-03-06T08:12:09.596Z,632.00
2023-03-06T08:13:09.623Z,630.00
2023-03-06T08:14:09.606Z,629.00
2023-03-06T08:15:09.578Z,628.00
2023-03-06T08:16:09.612Z,626.00
2023-03-06T08:17:09.576Z,627.00
2023-03-06T08:18:09.560Z,628.00
2023-03-06T08:19:09.571Z,628.00
2023-03-06T08:20:09.538Z,629.00
2023-03-06T08:21:09.539Z,628.00
2023-03-06T08:22:08.537Z,624.00
2023-03-06T08:23:09.597Z,626.00
2023-03-06T08:24:09.662Z,627.00
2023-03-06T08:26:09.765Z,626.00
2023-03-06T08:27:09.872Z,620.00
2023-03-06T08:28:09.883Z,619.00
2023-03-06T08:29:09.935Z,617.00
2023-03-06T08:30:10.005Z,621.00
2023-03-06T08:31:10.125Z,614.00
2023-03-06T08:32:10.095Z,628.00
2023-03-06T08:33:10.129Z,624.00
2023-03-06T08:34:10.165Z,635.00
2023-03-06T08:35:09.241Z,631.00
2023-03-06T08:36:09.253Z,631.00
2023-03-06T08:37:10.297Z,632.00
2023-03-06T08:40:09.310Z,629.00
2023-03-06T08:41:10.380Z,631.00
2023-03-06T08:42:10.409Z,631.00
2023-03-06T08:43:12.916Z,633.00
2023-03-06T08:44:10.441Z,633.00
2023-03-06T08:45:10.440Z,629.00
2023-03-06T08:46:09.435Z,633.00
2023-03-06T08:47:10.449Z,623.00
2023-03-06T08:48:11.197Z,629.00
2023-03-06T08:50:10.400Z,626.00
2023-03-06T08:51:09.404Z,627.00
2023-03-06T08:52:09.405Z,627.00
2023-03-06T08:53:10.391Z,627.00
2023-03-06T08:54:10.390Z,623.00
2023-03-06T08:56:09.365Z,612.00
2023-03-06T08:57:09.362Z,612.00
2023-03-06T08:58:10.350Z,612.00
2023-03-06T08:59:09.453Z,610.00
2023-03-06T09:00:10.599Z,611.00
2023-03-06T09:01:10.454Z,605.00
2023-03-06T09:03:10.520Z,601.00
2023-03-06T09:04:10.538Z,603.00
2023-03-06T09:05:10.543Z,603.00
2023-03-06T09:06:10.565Z,606.00
2023-03-06T09:07:10.572Z,606.00
2023-03-06T09:08:10.606Z,600.00
2023-03-06T09:09:09.602Z,600.00
2023-03-06T09:10:10.614Z,605.00
2023-03-06T09:11:10.635Z,597.00
2023-03-06T09:12:10.652Z,595.00
2023-03-06T09:13:10.672Z,591.00
2023-03-06T09:14:10.640Z,590.00
2023-03-06T09:15:09.660Z,595.00
2023-03-06T09:16:10.681Z,590.00
2023-03-06T09:17:10.710Z,584.00
2023-03-06T09:18:09.670Z,586.00
2023-03-06T09:19:10.644Z,586.00
2023-03-06T09:20:10.714Z,583.00
2023-03-06T09:21:09.648Z,580.00
2023-03-06T09:22:09.655Z,578.00
2023-03-06T09:23:10.671Z,579.00
2023-03-06T09:24:10.660Z,577.00
2023-03-06T09:25:10.650Z,578.00
2023-03-06T09:26:10.641Z,577.00
2023-03-06T09:27:10.639Z,575.00
2023-03-06T09:28:12.106Z,573.00
2023-03-06T09:29:10.882Z,575.00
2023-03-06T09:30:10.851Z,574.00
2023-03-06T09:31:10.993Z,572.00
2023-03-06T09:32:12.071Z,575.00
2023-03-06T09:33:09.836Z,572.00
2023-03-06T09:34:10.841Z,569.00
2023-03-06T09:35:10.860Z,566.00
2023-03-06T09:36:10.832Z,567.00
2023-03-06T09:37:09.847Z,567.00
2023-03-06T09:38:10.847Z,567.00
2023-03-06T09:39:10.838Z,563.00
2023-03-06T09:40:10.842Z,562.00
2023-03-06T09:41:10.845Z,559.00
2023-03-06T09:42:10.865Z,559.00
2023-03-06T09:43:10.861Z,555.00
2023-03-06T09:44:11.227Z,555.00
2023-03-06T09:46:10.897Z,560.00
2023-03-06T09:47:11.056Z,556.00
2023-03-06T09:48:10.858Z,552.00
2023-03-06T09:49:10.853Z,550.00
2023-03-06T09:50:10.848Z,551.00
2023-03-06T09:51:10.864Z,550.00
2023-03-06T09:52:10.852Z,556.00
2023-03-06T09:53:10.875Z,548.00
2023-03-06T09:54:10.897Z,549.00
2023-03-06T09:55:10.872Z,551.00
2023-03-06T09:56:09.864Z,547.00
2023-03-06T09:57:10.857Z,545.00
2023-03-06T09:58:10.871Z,541.00
2023-03-06T09:59:11.210Z,543.00
2023-03-06T10:00:10.879Z,546.00
2023-03-06T10:01:10.879Z,544.00
2023-03-06T10:02:11.013Z,539.00
2023-03-06T10:03:10.050Z,543.00
2023-03-06T10:04:09.897Z,541.00
2023-03-06T10:05:09.954Z,541.00
2023-03-06T10:06:10.904Z,542.00
2023-03-06T10:07:10.895Z,539.00
2023-03-06T10:08:09.887Z,538.00
2023-03-06T10:09:09.945Z,542.00
2023-03-06T10:10:10.030Z,538.00
2023-03-06T10:11:09.943Z,538.00
2023-03-06T10:12:10.901Z,536.00
2023-03-06T10:13:10.918Z,535.00
2023-03-06T10:14:10.908Z,536.00
2023-03-06T10:15:10.916Z,531.00
2023-03-06T10:16:10.967Z,532.00
2023-03-06T10:17:10.918Z,530.00
2023-03-06T10:18:09.931Z,535.00
2023-03-06T10:19:09.976Z,529.00
2023-03-06T10:20:09.930Z,532.00
2023-03-06T10:21:19.065Z,532.00
2023-03-06T10:22:10.941Z,533.00
2023-03-06T10:23:11.137Z,532.00
2023-03-06T10:24:10.919Z,533.00
2023-03-06T10:25:10.963Z,530.00
2023-03-06T10:26:10.972Z,527.00
2023-03-06T10:27:10.963Z,527.00
2023-03-06T10:28:10.892Z,524.00
2023-03-06T10:29:10.900Z,529.00
2023-03-06T10:30:09.876Z,523.00
2023-03-06T10:31:10.580Z,524.00
2023-03-06T10:32:09.911Z,526.00
2023-03-06T10:35:10.918Z,521.00
2023-03-06T10:36:10.855Z,515.00
2023-03-06T10:37:10.832Z,522.00
2023-03-06T10:38:09.839Z,517.00
2023-03-06T10:39:10.809Z,514.00
2023-03-06T10:40:10.841Z,516.00
2023-03-06T10:41:10.801Z,516.00
2023-03-06T10:43:12.190Z,513.00
2023-03-06T10:44:10.921Z,514.00
2023-03-06T10:45:10.930Z,517.00
2023-03-06T10:46:10.969Z,517.00
2023-03-06T10:47:10.926Z,516.00
2023-03-06T10:48:10.940Z,514.00
2023-03-06T10:49:11.246Z,509.00
2023-03-06T10:50:10.957Z,512.00
2023-03-06T10:51:18.021Z,512.00
2023-03-06T10:52:10.955Z,512.00
2023-03-06T10:53:09.932Z,513.00
2023-03-06T10:54:11.236Z,508.00
2023-03-06T10:55:11.789Z,511.00
2023-03-06T10:56:11.158Z,513.00
2023-03-06T10:57:11.202Z,510.00
2023-03-06T10:58:10.175Z,511.00
2023-03-06T10:59:11.173Z,509.00
2023-03-06T11:00:10.176Z,508.00
2023-03-06T11:01:11.207Z,502.00
2023-03-06T11:02:11.179Z,506.00
2023-03-06T11:03:11.190Z,504.00
2023-03-06T11:04:11.217Z,501.00
2023-03-06T11:05:10.214Z,507.00
2023-03-06T11:06:12.916Z,508.00
2023-03-06T11:07:11.308Z,507.00
2023-03-06T11:08:11.191Z,507.00
2023-03-06T11:09:11.195Z,510.00
2023-03-06T11:10:11.183Z,507.00
2023-03-06T11:11:11.166Z,502.00
2023-03-06T11:12:11.161Z,502.00
2023-03-06T11:13:11.171Z,503.00
2023-03-06T11:14:11.140Z,505.00
2023-03-06T11:15:11.147Z,504.00
2023-03-06T11:16:10.177Z,500.00
2023-03-06T11:17:11.119Z,505.00
2023-03-06T11:18:11.141Z,500.00
2023-03-06T11:19:11.118Z,503.00
2023-03-06T11:20:11.099Z,505.00
2023-03-06T11:21:10.080Z,502.00
2023-03-06T11:22:11.132Z,504.00
2023-03-06T11:23:11.209Z,504.00
2023-03-06T11:24:11.071Z,505.00
2023-03-06T11:25:11.069Z,505.00
2023-03-06T11:26:11.036Z,504.00
2023-03-06T11:27:11.034Z,505.00
2023-03-06T11:28:10.027Z,510.00
2023-03-06T11:29:11.081Z,510.00
2023-03-06T11:30:11.017Z,504.00
2023-03-06T11:31:11.021Z,504.00
2023-03-06T11:32:11.091Z,504.00
2023-03-06T11:33:11.003Z,501.00
2023-03-06T11:34:10.010Z,503.00
2023-03-06T11:35:09.981Z,504.00
2023-03-06T11:36:10.964Z,501.00
2023-03-06T11:37:10.955Z,508.00
2023-03-06T11:38:10.961Z,505.00
2023-03-06T11:39:10.020Z,504.00
2023-03-06T11:40:10.947Z,505.00
2023-03-06T11:41:10.936Z,502.00
2023-03-06T11:42:10.940Z,504.00
2023-03-06T11:43:10.927Z,501.00
2023-03-06T11:44:10.915Z,507.00
2023-03-06T11:45:10.896Z,503.00
2023-03-06T11:46:10.900Z,506.00
2023-03-06T11:47:10.897Z,503.00
2023-03-06T11:48:10.879Z,504.00
2023-03-06T11:49:10.886Z,500.00
2023-03-06T11:50:10.864Z,500.00
2023-03-06T11:51:10.866Z,503.00
2023-03-06T11:52:10.850Z,501.00
2023-03-06T11:53:10.851Z,503.00
2023-03-06T11:54:10.851Z,503.00
2023-03-06T11:55:10.860Z,503.00
2023-03-06T11:56:10.843Z,503.00
2023-03-06T11:57:10.814Z,504.00
2023-03-06T11:58:10.811Z,504.00
2023-03-06T12:00:10.804Z,500.00
2023-03-06T12:01:10.793Z,505.00
2023-03-06T12:02:10.828Z,501.00
2023-03-06T12:03:10.777Z,508.00
2023-03-06T12:04:10.807Z,504.00
2023-03-06T12:05:10.873Z,503.00
2023-03-06T12:06:10.785Z,505.00
2023-03-06T12:07:10.747Z,503.00
2023-03-06T12:08:10.751Z,506.00
2023-03-06T12:09:10.760Z,506.00
2023-03-06T12:11:10.756Z,502.00
2023-03-06T12:12:10.747Z,503.00
2023-03-06T12:13:10.705Z,503.00
2023-03-06T12:14:10.722Z,506.00
2023-03-06T12:15:10.701Z,504.00
2023-03-06T12:16:10.717Z,505.00
2023-03-06T12:18:10.684Z,503.00
2023-03-06T12:19:10.684Z,503.00
2023-03-06T12:20:10.671Z,504.00
2023-03-06T12:21:10.663Z,501.00
2023-03-06T12:22:10.642Z,502.00
2023-03-06T12:23:15.337Z,504.00
2023-03-06T12:24:10.657Z,505.00
2023-03-06T12:25:10.657Z,505.00
2023-03-06T12:26:10.620Z,505.00
2023-03-06T12:27:10.650Z,504.00
2023-03-06T12:28:10.614Z,502.00
2023-03-06T12:30:10.602Z,503.00
2023-03-06T12:31:10.593Z,502.00
2023-03-06T12:32:10.707Z,502.00
2023-03-06T12:33:10.573Z,500.00
2023-03-06T12:34:10.556Z,502.00
2023-03-06T12:35:10.567Z,501.00
2023-03-06T12:36:09.541Z,501.00
2023-03-06T12:37:10.556Z,501.00
2023-03-06T12:38:10.528Z,506.00
2023-03-06T12:39:10.548Z,507.00
2023-03-06T12:40:10.534Z,508.00
2023-03-06T12:41:09.506Z,500.00
2023-03-06T12:42:17.882Z,502.00
2023-03-06T12:43:10.526Z,502.00
2023-03-06T12:44:10.482Z,503.00
2023-03-06T12:45:10.481Z,499.00
2023-03-06T12:46:09.574Z,495.00
2023-03-06T12:47:10.468Z,497.00
2023-03-06T12:48:10.471Z,500.00
2023-03-06T12:50:10.450Z,501.00
2023-03-06T12:51:10.448Z,505.00
2023-03-06T12:52:11.014Z,500.00
2023-03-06T12:53:10.437Z,504.00
2023-03-06T12:54:10.422Z,507.00
2023-03-06T12:55:10.407Z,506.00
2023-03-06T12:56:09.414Z,501.00
2023-03-06T12:57:10.432Z,506.00
2023-03-06T12:58:10.380Z,506.00
2023-03-06T12:59:10.405Z,508.00
2023-03-06T13:00:09.385Z,500.00
2023-03-06T13:01:10.429Z,507.00
2023-03-06T13:02:10.426Z,502.00
2023-03-06T13:03:10.350Z,509.00
2023-03-06T13:04:10.333Z,504.00
2023-03-06T13:05:10.330Z,505.00
2023-03-06T13:06:10.337Z,508.00
2023-03-06T13:07:10.715Z,507.00
2023-03-06T13:10:10.346Z,503.00
2023-03-06T13:11:10.290Z,505.00
2023-03-06T13:13:10.273Z,504.00
2023-03-06T13:15:10.285Z,506.00
2023-03-06T13:16:09.242Z,505.00
2023-03-06T13:17:09.241Z,504.00
2023-03-06T13:18:10.234Z,508.00
2023-03-06T13:19:10.238Z,504.00
2023-03-06T13:20:10.223Z,504.00
2023-03-06T13:21:10.218Z,500.00
2023-03-06T13:22:10.223Z,502.00
2023-03-06T13:23:10.208Z,504.00
2023-03-06T13:25:10.194Z,507.00
2023-03-06T13:26:10.181Z,503.00
2023-03-06T13:27:10.179Z,506.00
2023-03-06T13:28:10.158Z,505.00
2023-03-06T13:29:10.159Z,504.00
2023-03-06T13:30:09.152Z,504.00
2023-03-06T13:31:21.350Z,500.00
2023-03-06T13:32:10.154Z,501.00
2023-03-06T13:33:10.117Z,502.00
2023-03-06T13:34:10.114Z,501.00
2023-03-06T13:35:10.127Z,503.00
2023-03-06T13:36:10.139Z,504.00
2023-03-06T13:37:09.090Z,505.00
2023-03-06T13:38:10.089Z,499.00
2023-03-06T13:39:10.075Z,500.00
2023-03-06T13:40:10.073Z,502.00
2023-03-06T13:41:10.057Z,502.00
2023-03-06T13:42:10.056Z,500.00
2023-03-06T13:43:09.042Z,501.00
2023-03-06T13:44:10.045Z,504.00
2023-03-06T13:45:10.036Z,515.00
2023-03-06T13:46:10.130Z,509.00
2023-03-06T13:47:10.117Z,505.00
2023-03-06T13:48:37.164Z,507.00
2023-03-06T13:49:09.994Z,507.00
2023-03-06T13:50:09.988Z,508.00
2023-03-06T13:51:10.007Z,510.00
2023-03-06T13:52:09.976Z,512.00
2023-03-06T13:53:09.974Z,513.00
2023-03-06T13:54:10.059Z,513.00
2023-03-06T13:55:09.949Z,517.00
2023-03-06T13:56:09.946Z,514.00
2023-03-06T13:57:09.950Z,512.00
2023-03-06T13:59:08.917Z,521.00
2023-03-06T14:00:09.926Z,520.00
2023-03-06T14:01:09.959Z,526.00
2023-03-06T14:02:09.916Z,520.00
2023-03-06T14:03:09.968Z,521.00
2023-03-06T14:04:08.890Z,523.00
2023-03-06T14:05:09.897Z,520.00
2023-03-06T14:06:09.868Z,522.00
2023-03-06T14:07:09.865Z,521.00
2023-03-06T14:08:09.867Z,525.00
2023-03-06T14:10:09.846Z,527.00
2023-03-06T14:12:09.020Z,528.00
2023-03-06T14:13:09.812Z,530.00
2023-03-06T14:15:09.909Z,528.00
2023-03-06T14:17:09.782Z,528.00
2023-03-06T14:20:09.815Z,526.00
2023-03-06T14:21:09.762Z,523.00
2023-03-06T14:24:09.733Z,528.00
2023-03-06T14:25:09.722Z,529.00
2023-03-06T14:27:09.713Z,530.00
2023-03-06T14:28:14.247Z,529.00
2023-03-06T14:29:09.908Z,530.00
2023-03-06T14:30:10.004Z,530.00
2023-03-06T14:31:09.952Z,532.00
2023-03-06T14:32:09.947Z,531.00
2023-03-06T14:33:08.910Z,531.00
2023-03-06T14:34:09.925Z,534.00
2023-03-06T14:35:09.959Z,535.00
2023-03-06T14:36:09.937Z,534.00
2023-03-06T14:37:09.943Z,534.00
2023-03-06T14:38:09.953Z,534.00
2023-03-06T14:39:09.952Z,535.00
2023-03-06T14:40:09.979Z,527.00
2023-03-06T14:41:11.374Z,515.00
2023-03-06T14:42:09.943Z,517.00
2023-03-06T14:43:09.948Z,509.00
2023-03-06T14:44:09.935Z,510.00
2023-03-06T14:45:08.921Z,499.00
2023-03-06T14:46:10.007Z,503.00
2023-03-06T14:47:08.909Z,502.00
2023-03-06T14:48:09.913Z,504.00
2023-03-06T14:49:09.904Z,500.00
2023-03-06T14:50:09.030Z,503.00
2023-03-06T14:51:08.917Z,500.00
2023-03-06T14:52:08.881Z,508.00
2023-03-06T14:53:09.879Z,501.00
2023-03-06T14:54:09.889Z,500.00
2023-03-06T14:55:09.874Z,508.00
2023-03-06T14:56:09.875Z,501.00
2023-03-06T14:58:09.838Z,509.00
2023-03-06T15:00:08.829Z,508.00
2023-03-06T15:01:09.821Z,505.00
2023-03-06T15:02:09.821Z,510.00
2023-03-06T15:04:08.792Z,506.00
2023-03-06T15:06:09.790Z,511.00
2023-03-06T15:08:09.769Z,506.00
2023-03-06T15:34:09.601Z,5183.00
2023-03-06T15:36:08.556Z,5206.00
2023-03-06T15:51:09.685Z,4195.00
2023-03-06T16:15:09.873Z,3333.00
2023-03-06T16:16:09.885Z,3303.00
2023-03-06T16:17:09.956Z,3262.00
2023-03-06T16:18:09.910Z,3192.00
2023-03-06T16:19:14.009Z,3127.00
2023-03-06T16:20:09.917Z,3127.00
2023-03-06T16:21:09.914Z,3102.00
2023-03-06T16:23:09.888Z,3071.00
2023-03-06T16:24:09.879Z,3033.00
2023-03-06T16:25:09.873Z,3034.00
2023-03-06T16:26:09.876Z,2999.00
2023-03-06T16:27:09.892Z,2960.00
2023-03-06T16:29:08.851Z,2875.00
